Nearby METAR Reports

 

KSLE - Salem, Oregon, USA
Distance from station: NE 1mi, 2km
Updated: Tue, 05-Jul-2022 5:56pm PDT
Light rain, Overcast
Light rain, Overcast
 Wind from W
Wind: W 8 mph , 13 km/h
Temperature: 70°F , 21°C
Dew Point: 61°F , 16°C
Humidity: 73%
Barometer: 29.90 inHg , 1012.5 hPa
Summary: Light rain
Clouds: Overcast
Visibility: 10 miles , 16 km
Cloud details: Few Clouds 3000 ft
Overcast 7000 ft
2022/07/06 00:56 KSLE 060056Z 28007KT 10SM -RA FEW030 OVC070 21/16 A2990 RMK AO2 RAB25 SLP124 P0000 T02060161
KMMV - Mcminnville, Oregon, USA
Distance from station: NNW 22mi, 36km
Updated: Tue, 05-Jul-2022 5:53pm PDT
Overcast
Overcast
 Wind from SW
Wind: SW 3 mph , 6 km/h
Temperature: 68°F , 20°C
Dew Point: 59°F , 15°C
Humidity: 73%
Barometer: 29.91 inHg , 1012.9 hPa
Clouds: Overcast
Visibility: 10 miles , 16 km
Cloud details: Few Clouds 4500 ft
Mostly cloudy 8000 ft
Overcast 9000 ft
2022/07/06 00:53 KMMV 060053Z AUTO 23003KT 10SM FEW045 BKN080 OVC090 20/15 A2991 RMK AO2 SLP126 T02000150
 
KUAO - Aurora, Oregon, USA
Distance from station: NNE 28mi, 45km
Updated: Tue, 05-Jul-2022 5:53pm PDT
Overcast
Overcast
 Wind from W
Wind: W 6 mph , 9 km/h
Temperature: 72°F , 22°C
Dew Point: 59°F , 15°C
Humidity: 65%
Barometer: 29.91 inHg , 1012.9 hPa
Clouds: Overcast
Visibility: 10 miles , 16 km
Cloud details: Few Clouds 3600 ft
Overcast 7000 ft
2022/07/06 00:53 KUAO 060053Z 26005KT 10SM FEW036 OVC070 22/15 A2991 RMK AO2 SLP128 T02170150
KCVO - Corvallis Muni A, Oregon, USA
Distance from station: SSW 29mi, 47km
Updated: Tue, 05-Jul-2022 6:09pm PDT
Rain, Mist, Overcast
Rain, Mist, Overcast
 Wind from NW
Wind: NW 5 mph , 7 km/h
Temperature: 66°F , 19°C
Dew Point: 64°F , 18°C
Humidity: 94%
Barometer: 29.93 inHg , 1013.5 hPa
Summary: Rain, Mist
Clouds: Overcast
Visibility: 3 miles , 5 km
Cloud details: Partly cloudy 800 ft
Mostly cloudy 1800 ft
Overcast 2300 ft
2022/07/06 01:09 KCVO 060109Z AUTO 32004KT 3SM RA BR SCT008 BKN018 OVC023 19/18 A2993 RMK AO2 P0001
 
KHIO - Hillsboro/Portld, Oregon, USA
Distance from station: N 46mi, 74km
Updated: Tue, 05-Jul-2022 5:53pm PDT
Overcast
Overcast
 Wind from WNW
Wind: WNW 6 mph , 9 km/h
Temperature: 70°F , 21°C
Dew Point: 57°F , 14°C
Humidity: 64%
Barometer: 29.90 inHg , 1012.5 hPa
Clouds: Overcast
Visibility: 10 miles , 16 km
Cloud details: Overcast 8000 ft
2022/07/06 00:53 KHIO 060053Z 29005KT 10SM OVC080 21/14 A2990 RMK AO2 SLP123 T02060144